Time,TemperatureF,DewpointF,PressureIn,WindDirection,WindDirectionDegrees,WindSpeedMPH,WindSpeedGustMPH,Humidity,HourlyPrecipIn,Conditions,Clouds,dailyrainin,SoftwareType,DateUTC
2013-02-12 00:12:00,45.0,16.0,29.94,South,173,5.0,13.0,31,0.00,,,0.11,weatherlink.com 1.10,2013-02-12 05:12:00,
2013-02-12 00:28:00,44.7,15.0,29.93,South,176,2.0,15.0,30,0.00,,,0.11,weatherlink.com 1.10,2013-02-12 05:28:00,
2013-02-12 00:42:00,44.3,17.0,29.93,South,173,6.0,12.0,33,0.00,,,0.00,weatherlink.com 1.10,2013-02-12 05:42:00,
2013-02-12 00:57:00,43.9,18.0,29.93,South,176,3.0,15.0,35,0.00,,,0.00,weatherlink.com 1.10,2013-02-12 05:57:00,
2013-02-12 01:12:00,43.6,19.0,29.94,South,174,3.0,13.0,37,0.00,,,0.00,weatherlink.com 1.10,2013-02-12 06:12:00,
2013-02-12 01:28:00,43.5,19.0,29.95,South,175,4.0,13.0,37,0.00,,,0.00,weatherlink.com 1.10,2013-02-12 06:28:00,
2013-02-12 01:42:00,42.9,19.0,29.96,South,173,2.0,12.0,39,0.00,,,0.00,weatherlink.com 1.10,2013-02-12 06:42:00,
2013-02-12 01:57:00,42.5,20.0,29.96,South,173,2.0,13.0,40,0.00,,,0.00,weatherlink.com 1.10,2013-02-12 06:57:00,
2013-02-12 02:28:00,41.7,22.0,29.97,South,172,5.0,14.0,46,0.00,,,0.00,weatherlink.com 1.10,2013-02-12 07:28:00,
2013-02-12 02:43:00,41.0,23.0,29.95,South,176,5.0,16.0,49,0.00,,,0.00,weatherlink.com 1.10,2013-02-12 07:43:00,
2013-02-12 02:58:00,40.5,21.0,29.96,South,169,9.0,15.0,46,0.00,,,0.00,weatherlink.com 1.10,2013-02-12 07:58:00,
2013-02-12 03:13:00,40.3,20.0,29.95,South,172,4.0,14.0,45,0.00,,,0.00,weatherlink.com 1.10,2013-02-12 08:13:00,
2013-02-12 03:28:00,39.7,21.0,29.95,South,173,1.0,16.0,47,0.00,,,0.00,weatherlink.com 1.10,2013-02-12 08:28:00,
2013-02-12 03:43:00,39.6,21.0,29.95,South,172,8.0,18.0,47,0.00,,,0.00,weatherlink.com 1.10,2013-02-12 08:43:00,
2013-02-12 03:58:00,39.4,21.0,29.94,South,176,1.0,9.0,47,0.00,,,0.00,weatherlink.com 1.10,2013-02-12 08:58:00,
2013-02-12 04:13:00,39.3,21.0,29.94,South,176,2.0,12.0,48,0.00,,,0.00,weatherlink.com 1.10,2013-02-12 09:13:00,
2013-02-12 04:28:00,39.0,21.0,29.95,South,177,3.0,19.0,48,0.00,,,0.00,weatherlink.com 1.10,2013-02-12 09:28:00,
2013-02-12 04:43:00,39.1,20.0,29.93,South,173,2.0,15.0,47,0.00,,,0.00,weatherlink.com 1.10,2013-02-12 09:43:00,
2013-02-12 04:58:00,39.1,19.0,29.95,South,180,5.0,16.0,45,0.00,,,0.00,weatherlink.com 1.10,2013-02-12 09:58:00,
2013-02-12 05:13:00,38.8,19.0,29.94,SSE,165,11.0,18.0,46,0.00,,,0.00,weatherlink.com 1.10,2013-02-12 10:13:00,
2013-02-12 05:28:00,38.7,20.0,29.94,South,170,4.0,12.0,47,0.00,,,0.00,weatherlink.com 1.10,2013-02-12 10:28:00,
2013-02-12 05:43:00,38.4,19.0,29.95,South,179,7.0,12.0,46,0.00,,,0.00,weatherlink.com 1.10,2013-02-12 10:43:00,
2013-02-12 05:58:00,38.7,18.0,29.95,South,176,2.0,13.0,44,0.00,,,0.00,weatherlink.com 1.10,2013-02-12 10:58:00,
2013-02-12 06:28:00,38.3,19.0,29.96,South,172,3.0,16.0,46,0.00,,,0.00,weatherlink.com 1.10,2013-02-12 11:28:00,
2013-02-12 06:44:00,38.3,19.0,29.96,South,173,2.0,13.0,45,0.00,,,0.00,weatherlink.com 1.10,2013-02-12 11:44:00,
2013-02-12 06:58:00,38.2,18.0,29.97,South,170,1.0,13.0,45,0.00,,,0.00,weatherlink.com 1.10,2013-02-12 11:58:00,
2013-02-12 07:14:00,38.2,18.0,29.96,SSE,162,8.0,18.0,45,0.00,,,0.00,weatherlink.com 1.10,2013-02-12 12:14:00,
2013-02-12 07:29:00,38.2,18.0,29.97,South,170,4.0,12.0,45,0.00,,,0.00,weatherlink.com 1.10,2013-02-12 12:29:00,
2013-02-12 07:44:00,37.8,19.0,29.98,South,176,1.0,14.0,47,0.00,,,0.00,weatherlink.com 1.10,2013-02-12 12:44:00,
2013-02-12 07:58:00,37.9,19.0,29.98,South,172,5.0,12.0,47,0.00,,,0.00,weatherlink.com 1.10,2013-02-12 12:58:00,
2013-02-12 08:13:00,38.2,19.0,29.99,South,174,2.0,10.0,47,0.00,,,0.00,weatherlink.com 1.10,2013-02-12 13:13:00,
2013-02-12 08:44:00,38.4,19.0,30.00,SSE,168,4.0,13.0,46,0.00,,,0.00,weatherlink.com 1.10,2013-02-12 13:44:00,
2013-02-12 08:58:00,39.3,20.0,30.01,SSE,168,4.0,16.0,47,0.00,,,0.00,weatherlink.com 1.10,2013-02-12 13:58:00,
2013-02-12 09:14:00,39.6,20.0,30.00,South,173,0.0,10.0,46,0.00,,,0.00,weatherlink.com 1.10,2013-02-12 14:14:00,
2013-02-12 09:29:00,40.0,20.0,30.02,SSE,167,6.0,12.0,44,0.00,,,0.00,weatherlink.com 1.10,2013-02-12 14:29:00,
2013-02-12 09:44:00,41.2,21.0,30.02,South,172,2.0,13.0,44,0.00,,,0.00,weatherlink.com 1.10,2013-02-12 14:44:00,
2013-02-12 09:59:00,42.8,21.0,30.02,South,170,2.0,11.0,42,0.00,,,0.00,weatherlink.com 1.10,2013-02-12 14:59:00,
2013-02-12 10:14:00,44.5,20.0,30.02,South,172,0.0,6.0,38,0.00,,,0.00,weatherlink.com 1.10,2013-02-12 15:14:00,
2013-02-12 10:29:00,46.2,18.0,30.01,South,172,2.0,6.0,33,0.00,,,0.00,weatherlink.com 1.10,2013-02-12 15:29:00,
2013-02-12 10:44:00,47.8,20.0,30.01,South,172,2.0,5.0,33,0.00,,,0.00,weatherlink.com 1.10,2013-02-12 15:44:00,
2013-02-12 10:59:00,48.7,18.0,30.00,South,172,0.0,3.0,30,0.00,,,0.00,weatherlink.com 1.10,2013-02-12 15:59:00,
2013-02-12 11:14:00,49.5,23.0,30.00,South,172,2.0,4.0,36,0.00,,,0.00,weatherlink.com 1.10,2013-02-12 16:14:00,
2013-02-12 11:29:00,50.4,27.0,29.99,South,172,1.0,4.0,40,0.00,,,0.00,weatherlink.com 1.10,2013-02-12 16:29:00,
2013-02-12 11:44:00,50.7,28.0,30.00,South,173,3.0,5.0,41,0.00,,,0.00,weatherlink.com 1.10,2013-02-12 16:44:00,
2013-02-12 11:59:00,52.4,28.0,30.00,South,176,1.0,7.0,39,0.00,,,0.00,weatherlink.com 1.10,2013-02-12 16:59:00,
2013-02-12 12:14:00,51.9,27.0,29.99,South,176,3.0,5.0,38,0.00,,,0.00,weatherlink.com 1.10,2013-02-12 17:14:00,
2013-02-12 12:29:00,51.7,26.0,29.99,South,176,2.0,4.0,37,0.00,,,0.00,weatherlink.com 1.10,2013-02-12 17:29:00,
2013-02-12 12:44:00,50.3,25.0,29.99,South,176,0.0,4.0,38,0.00,,,0.00,weatherlink.com 1.10,2013-02-12 17:44:00,
2013-02-12 12:59:00,50.2,27.0,29.98,South,176,2.0,3.0,40,0.00,,,0.00,weatherlink.com 1.10,2013-02-12 17:59:00,
2013-02-12 13:14:00,50.4,26.0,29.98,South,176,0.0,1.0,39,0.00,,,0.00,weatherlink.com 1.10,2013-02-12 18:14:00,
2013-02-12 13:29:00,49.6,24.0,29.98,South,176,1.0,3.0,37,0.00,,,0.00,weatherlink.com 1.10,2013-02-12 18:29:00,
2013-02-12 13:44:00,49.6,25.0,29.96,South,176,1.0,2.0,38,0.00,,,0.00,weatherlink.com 1.10,2013-02-12 18:44:00,
2013-02-12 13:59:00,48.5,25.0,29.97,South,174,0.0,4.0,40,0.00,,,0.00,weatherlink.com 1.10,2013-02-12 18:59:00,
2013-02-12 14:14:00,47.8,25.0,29.97,South,174,0.0,3.0,41,0.00,,,0.00,weatherlink.com 1.10,2013-02-12 19:14:00,
2013-02-12 14:29:00,47.6,25.0,29.96,South,174,0.0,3.0,42,0.00,,,0.00,weatherlink.com 1.10,2013-02-12 19:29:00,
2013-02-12 14:44:00,47.6,25.0,29.95,South,174,3.0,3.0,42,0.00,,,0.00,weatherlink.com 1.10,2013-02-12 19:44:00,
2013-02-12 14:59:00,47.4,26.0,29.95,South,174,1.0,1.0,43,0.00,,,0.00,weatherlink.com 1.10,2013-02-12 19:59:00,
2013-02-12 15:14:00,47.3,27.0,29.97,South,174,0.0,2.0,45,0.00,,,0.00,weatherlink.com 1.10,2013-02-12 20:14:00,
2013-02-12 15:29:00,47.0,27.0,29.96,South,174,0.0,0.0,46,0.00,,,0.00,weatherlink.com 1.10,2013-02-12 20:29:00,
2013-02-12 15:44:00,46.7,26.0,29.96,South,175,0.0,2.0,44,0.00,,,0.00,weatherlink.com 1.10,2013-02-12 20:44:00,
2013-02-12 15:59:00,46.3,25.0,29.97,South,174,1.0,5.0,44,0.00,,,0.00,weatherlink.com 1.10,2013-02-12 20:59:00,
2013-02-12 16:14:00,46.0,23.0,29.97,South,173,2.0,7.0,41,0.00,,,0.00,weatherlink.com 1.10,2013-02-12 21:14:00,
2013-02-12 16:29:00,45.9,23.0,29.95,South,173,4.0,6.0,41,0.00,,,0.00,weatherlink.com 1.10,2013-02-12 21:29:00,
2013-02-12 16:44:00,46.0,23.0,29.95,South,173,2.0,6.0,40,0.00,,,0.00,weatherlink.com 1.10,2013-02-12 21:44:00,
2013-02-12 16:59:00,46.0,23.0,29.94,South,173,0.0,4.0,41,0.00,,,0.00,weatherlink.com 1.10,2013-02-12 21:59:00,
2013-02-12 17:14:00,46.0,23.0,29.94,South,173,3.0,4.0,40,0.00,,,0.00,weatherlink.com 1.10,2013-02-12 22:14:00,
2013-02-12 17:29:00,46.3,21.0,29.92,South,173,0.0,0.0,37,0.00,,,0.00,weatherlink.com 1.10,2013-02-12 22:29:00,
2013-02-12 17:44:00,45.9,22.0,29.93,South,174,3.0,6.0,39,0.00,,,0.00,weatherlink.com 1.10,2013-02-12 22:44:00,
2013-02-12 18:00:00,45.9,20.0,29.91,South,173,0.0,4.0,36,0.00,,,0.00,weatherlink.com 1.10,2013-02-12 23:00:00,
2013-02-12 18:14:00,46.0,19.0,29.89,South,173,0.0,1.0,34,0.00,,,0.00,weatherlink.com 1.10,2013-02-12 23:14:00,
2013-02-12 18:29:00,46.1,20.0,29.90,South,173,0.0,2.0,36,0.00,,,0.00,weatherlink.com 1.10,2013-02-12 23:29:00,
2013-02-12 18:45:00,45.7,23.0,29.89,South,173,0.0,1.0,41,0.00,,,0.00,weatherlink.com 1.10,2013-02-12 23:45:00,
2013-02-12 18:59:00,45.8,22.0,29.90,South,173,0.0,0.0,39,0.00,,,0.00,weatherlink.com 1.10,2013-02-12 23:59:00,
2013-02-12 19:14:00,45.3,25.0,29.91,South,173,0.0,0.0,46,0.00,,,0.00,weatherlink.com 1.10,2013-02-13 00:14:00,
2013-02-12 19:29:00,43.9,28.0,29.92,South,173,0.0,0.0,54,0.00,,,0.00,weatherlink.com 1.10,2013-02-13 00:29:00,
2013-02-12 19:45:00,42.5,29.0,29.93,South,173,1.0,2.0,60,0.01,,,0.01,weatherlink.com 1.10,2013-02-13 00:45:00,
2013-02-12 19:59:00,42.0,28.0,29.93,South,173,0.0,2.0,58,0.01,,,0.01,weatherlink.com 1.10,2013-02-13 00:59:00,
2013-02-12 20:14:00,41.5,29.0,29.93,South,173,1.0,3.0,62,0.03,,,0.03,weatherlink.com 1.10,2013-02-13 01:14:00,
2013-02-12 20:29:00,39.9,30.0,29.92,South,173,0.0,1.0,67,0.04,,,0.04,weatherlink.com 1.10,2013-02-13 01:29:00,
2013-02-12 20:44:00,38.5,32.0,29.91,South,173,1.0,2.0,76,0.06,,,0.07,weatherlink.com 1.10,2013-02-13 01:44:00,
2013-02-12 20:59:00,37.4,32.0,29.94,South,173,3.0,4.0,81,0.07,,,0.08,weatherlink.com 1.10,2013-02-13 01:59:00,
2013-02-12 21:14:00,36.9,33.0,29.95,South,173,0.0,3.0,84,0.05,,,0.08,weatherlink.com 1.10,2013-02-13 02:14:00,
2013-02-12 21:29:00,37.2,32.0,29.93,South,173,0.0,1.0,82,0.04,,,0.08,weatherlink.com 1.10,2013-02-13 02:29:00,
2013-02-12 21:45:00,36.8,33.0,29.92,South,173,1.0,2.0,86,0.01,,,0.08,weatherlink.com 1.10,2013-02-13 02:45:00,
2013-02-12 22:00:00,36.4,34.0,29.92,South,173,1.0,3.0,90,0.00,,,0.08,weatherlink.com 1.10,2013-02-13 03:00:00,
2013-02-12 22:15:00,36.1,34.0,29.91,South,173,1.0,2.0,91,0.01,,,0.09,weatherlink.com 1.10,2013-02-13 03:15:00,
2013-02-12 22:30:00,35.8,34.0,29.91,South,173,2.0,2.0,92,0.01,,,0.09,weatherlink.com 1.10,2013-02-13 03:30:00,
2013-02-12 22:45:00,35.5,33.0,29.89,South,173,3.0,4.0,92,0.03,,,0.11,weatherlink.com 1.10,2013-02-13 03:45:00,
2013-02-12 23:00:00,35.3,33.0,29.89,South,174,4.0,4.0,92,0.03,,,0.11,weatherlink.com 1.10,2013-02-13 04:00:00,
2013-02-12 23:15:00,35.2,33.0,29.88,South,173,3.0,3.0,93,0.02,,,0.11,weatherlink.com 1.10,2013-02-13 04:15:00,
2013-02-12 23:30:00,35.2,33.0,29.87,South,174,1.0,3.0,93,0.02,,,0.11,weatherlink.com 1.10,2013-02-13 04:30:00,
2013-02-12 23:45:00,35.3,34.0,29.87,South,174,2.0,4.0,93,0.01,,,0.12,weatherlink.com 1.10,2013-02-13 04:45:00,